OIBL  Bandar Lengeh Airport

Add Bookmark

Bandar Lengeh, Iran

Status IATA
Operational BDH
Latitude Longitude
26° 31' 55" N 54° 49' 29" E
26.532000 54.824799
Local (DST + 5) UTC (GMT + 4)
Oct 1, 2014 03:25 Sep 30, 2014 23:55
Sunrise-Sunset Local UTC
Begin Civil Twilight 05:18 01:48
Sunrise 05:42 02:12
Sunset 05:38 14:08
End Civil Twilight 06:01 14:31

Current Weather

METAR Observed MVFR
OIBL 302100Z 31004KT 5000 HZ SKC 30/24 Q1008 Tue, Sep 30, 2014 @ 21:00 UTC
(2 Hours, 55 Minutes ago)
Marginal Visual Flight Rules
Wind Visibility Clouds Conditions
310° at 4 knots (7 kph) 5000 meters
  • Clear skies
  • Haze
Temperatures Readings Precipitation
Current Temp 30°C (86°F)
Dewpoint 24°C (75°F)
Heat Index 35°C (95°F)
Humidity 70%
Altimeter 29.76"Hg
Sea Level Pressure 1008mb
Field Elevation 45.93'
None Recorded

Additional weather within a 92.6km radius of OIBL

Map ICAO Location
OIBS 74.8km S (202°)
OIBA 75.7km S (164°)
OIBK 83.9km W (270°)

24 Hour Weather History

Loading
-

24 Hour Weather Graphs

Loading
-

CheckWX.com is intended as a tool to help pilots better visualize weather data. It is not intended as a substitute for an official weather briefing obtained from a Flight Service Station. CheckWX.com does not meet the FAA requirements for an official pre-flight weather briefing. Therefore, it's important that pilots still call and obtain an official FSS pre-flight weather briefing.